createdAt,value
2022-12-19T00:00:24.391Z,92.85
2022-12-19T00:01:24.422Z,92.38
2022-12-19T00:02:24.516Z,92.57
2022-12-19T00:03:24.384Z,92.47
2022-12-19T00:04:24.191Z,92.09
2022-12-19T00:05:24.657Z,92.33
2022-12-19T00:06:24.093Z,92.43
2022-12-19T00:07:24.068Z,92.57
2022-12-19T00:08:23.995Z,92.28
2022-12-19T00:09:23.949Z,92.24
2022-12-19T00:10:23.898Z,92.43
2022-12-19T00:11:23.854Z,92.57
2022-12-19T00:12:23.800Z,92.52
2022-12-19T00:13:23.777Z,92.28
2022-12-19T00:14:23.694Z,92.14
2022-12-19T00:15:23.654Z,92.90
2022-12-19T00:16:23.690Z,92.99
2022-12-19T00:17:23.549Z,92.99
2022-12-19T00:18:23.502Z,93.56
2022-12-19T00:19:23.456Z,93.46
2022-12-19T00:20:23.401Z,93.56
2022-12-19T00:21:23.360Z,93.65
2022-12-19T00:22:23.339Z,93.65
2022-12-19T00:23:23.259Z,93.46
2022-12-19T00:24:23.209Z,93.75
2022-12-19T00:25:23.157Z,93.46
2022-12-19T00:26:23.104Z,93.75
2022-12-19T00:27:23.057Z,93.37
2022-12-19T00:28:23.033Z,94.13
2022-12-19T00:29:22.958Z,93.94
2022-12-19T00:30:22.908Z,93.56
2022-12-19T00:31:22.912Z,93.61
2022-12-19T00:32:22.837Z,93.80
2022-12-19T00:33:22.761Z,93.70
2022-12-19T00:34:22.729Z,93.42
2022-12-19T00:35:22.662Z,93.46
2022-12-19T00:36:23.120Z,93.70
2022-12-19T00:37:22.561Z,93.32
2022-12-19T00:38:22.515Z,93.32
2022-12-19T00:39:22.476Z,93.42
2022-12-19T00:40:22.435Z,93.70
2022-12-19T00:41:22.369Z,93.51
2022-12-19T00:42:22.323Z,93.32
2022-12-19T00:43:22.269Z,93.61
2022-12-19T00:44:22.219Z,93.80
2022-12-19T00:45:22.171Z,93.32
2022-12-19T00:46:22.188Z,93.46
2022-12-19T00:47:22.066Z,93.51
2022-12-19T00:48:22.019Z,93.42
2022-12-19T00:49:21.974Z,93.80
2022-12-19T00:50:21.930Z,93.70
2022-12-19T00:51:21.873Z,93.61
2022-12-19T00:52:21.846Z,93.32
2022-12-19T00:53:21.778Z,93.51
2022-12-19T00:54:21.748Z,93.51
2022-12-19T00:55:21.710Z,93.89
2022-12-19T00:56:21.628Z,93.70
2022-12-19T00:57:21.583Z,93.13
2022-12-19T00:58:21.556Z,93.04
2022-12-19T00:59:26.720Z,93.23
2022-12-19T01:00:21.427Z,93.23
2022-12-19T01:01:21.477Z,93.51
2022-12-19T01:02:21.451Z,93.70
2022-12-19T01:03:21.369Z,93.61
2022-12-19T01:04:29.391Z,93.13
2022-12-19T01:05:21.187Z,92.94
2022-12-19T01:06:21.132Z,92.57
2022-12-19T01:07:21.114Z,92.47
2022-12-19T01:08:21.059Z,93.32
2022-12-19T01:09:20.986Z,93.04
2022-12-19T01:10:20.938Z,93.04
2022-12-19T01:11:20.892Z,92.85
2022-12-19T01:12:23.962Z,92.47
2022-12-19T01:13:20.815Z,93.23
2022-12-19T01:14:23.068Z,93.42
2022-12-19T01:15:20.697Z,93.32
2022-12-19T01:16:20.684Z,93.32
2022-12-19T01:17:20.608Z,93.89
2022-12-19T01:18:20.546Z,93.42
2022-12-19T01:19:20.497Z,93.89
2022-12-19T01:20:29.705Z,93.80
2022-12-19T01:21:20.396Z,93.70
2022-12-19T01:22:20.354Z,93.61
2022-12-19T01:23:20.323Z,94.27
2022-12-19T01:24:20.292Z,94.08
2022-12-19T01:25:20.201Z,94.18
2022-12-19T01:26:20.156Z,94.46
2022-12-19T01:27:20.108Z,94.65
2022-12-19T01:28:20.059Z,94.56
2022-12-19T01:29:20.006Z,94.37
2022-12-19T01:30:19.985Z,94.27
2022-12-19T01:31:19.941Z,94.65
2022-12-19T01:32:19.854Z,94.46
2022-12-19T01:33:19.810Z,94.37
2022-12-19T01:34:19.756Z,94.46
2022-12-19T01:35:21.828Z,94.56
2022-12-19T01:36:19.680Z,94.08
2022-12-19T01:37:19.612Z,94.08
2022-12-19T01:38:19.560Z,94.08
2022-12-19T01:39:19.510Z,94.08
2022-12-19T01:40:19.466Z,93.99
2022-12-19T01:41:19.416Z,93.61
2022-12-19T01:42:23.075Z,93.89
2022-12-19T01:43:19.319Z,93.80
2022-12-19T01:44:19.265Z,93.51
2022-12-19T01:45:19.217Z,93.51
2022-12-19T01:46:19.212Z,93.61
2022-12-19T01:47:19.120Z,93.42
2022-12-19T01:48:19.107Z,93.32
2022-12-19T01:49:19.121Z,93.04
2022-12-19T01:50:18.974Z,92.85
2022-12-19T01:51:18.923Z,92.47
2022-12-19T01:52:21.202Z,92.66
2022-12-19T01:53:18.824Z,92.61
2022-12-19T01:54:18.803Z,92.80
2022-12-19T01:55:18.731Z,92.90
2022-12-19T01:56:18.660Z,92.71
2022-12-19T01:57:18.599Z,92.90
2022-12-19T01:58:18.559Z,92.14
2022-12-19T01:59:18.504Z,92.61
2022-12-19T02:00:18.488Z,92.23
2022-12-19T02:01:18.579Z,92.42
2022-12-19T02:02:18.425Z,91.85
2022-12-19T02:03:18.340Z,91.66
2022-12-19T02:04:18.257Z,91.00
2022-12-19T02:05:18.208Z,90.62
2022-12-19T02:06:18.201Z,90.53
2022-12-19T02:07:18.114Z,90.53
2022-12-19T02:08:18.066Z,90.53
2022-12-19T02:09:18.013Z,90.53
2022-12-19T02:10:17.970Z,90.53
2022-12-19T02:11:17.922Z,90.91
2022-12-19T02:12:17.895Z,90.72
2022-12-19T02:13:17.824Z,90.62
2022-12-19T02:14:17.773Z,90.43
2022-12-19T02:15:17.724Z,90.53
2022-12-19T02:16:17.733Z,90.24
2022-12-19T02:17:17.637Z,90.53
2022-12-19T02:18:17.585Z,90.34
2022-12-19T02:19:17.535Z,89.96
2022-12-19T02:20:17.488Z,90.05
2022-12-19T02:21:17.438Z,89.86
2022-12-19T02:22:19.116Z,90.62
2022-12-19T02:23:17.343Z,90.62
2022-12-19T02:24:17.304Z,90.53
2022-12-19T02:25:17.247Z,90.34
2022-12-19T02:26:17.199Z,90.72
2022-12-19T02:27:17.150Z,90.43
2022-12-19T02:28:17.136Z,90.53
2022-12-19T02:29:34.919Z,90.53
2022-12-19T02:30:17.011Z,90.62
2022-12-19T02:31:17.749Z,90.81
2022-12-19T02:32:16.915Z,90.24
2022-12-19T02:33:17.136Z,89.77
2022-12-19T02:34:27.838Z,89.77
2022-12-19T02:35:16.946Z,89.86
2022-12-19T02:36:16.731Z,90.05
2022-12-19T02:37:16.957Z,89.11
2022-12-19T02:38:16.631Z,89.39
2022-12-19T02:39:16.778Z,89.01
2022-12-19T02:40:16.562Z,89.06
2022-12-19T02:41:16.480Z,88.58
2022-12-19T02:42:16.446Z,88.87
2022-12-19T02:43:16.593Z,88.68
2022-12-19T02:44:16.333Z,88.92
2022-12-19T02:45:22.758Z,89.01
2022-12-19T02:46:16.536Z,88.87
2022-12-19T02:47:16.199Z,88.39
2022-12-19T02:48:19.250Z,87.82
2022-12-19T02:49:21.344Z,87.87
2022-12-19T02:50:16.051Z,87.82
2022-12-19T02:51:16.080Z,88.29
2022-12-19T02:52:15.974Z,88.48
2022-12-19T02:53:15.928Z,87.82
2022-12-19T02:54:15.877Z,87.82
2022-12-19T02:55:15.897Z,88.10
2022-12-19T02:56:15.767Z,88.20
2022-12-19T02:57:15.901Z,88.20
2022-12-19T02:58:15.959Z,88.10
2022-12-19T02:59:15.616Z,87.54
2022-12-19T03:00:15.719Z,87.73
2022-12-19T03:01:15.591Z,87.92
2022-12-19T03:02:15.885Z,87.92
2022-12-19T03:03:15.445Z,87.92
2022-12-19T03:04:15.962Z,87.82
2022-12-19T03:05:15.544Z,87.92
2022-12-19T03:06:15.292Z,88.01
2022-12-19T03:07:15.377Z,87.82
2022-12-19T03:08:15.204Z,88.10
2022-12-19T03:09:15.370Z,88.10
2022-12-19T03:10:15.235Z,88.20
2022-12-19T03:11:15.083Z,88.39
2022-12-19T03:12:17.539Z,87.35
2022-12-19T03:13:14.993Z,87.54
2022-12-19T03:14:14.897Z,86.68
2022-12-19T03:15:15.234Z,86.87
2022-12-19T03:16:14.844Z,87.16
2022-12-19T03:17:14.771Z,88.01
2022-12-19T03:18:14.823Z,87.92
2022-12-19T03:19:14.663Z,87.92
2022-12-19T03:20:14.837Z,88.06
2022-12-19T03:21:14.584Z,88.44
2022-12-19T03:22:14.645Z,88.73
2022-12-19T03:23:14.474Z,89.01
2022-12-19T03:24:14.759Z,89.20
2022-12-19T03:25:14.375Z,89.77
2022-12-19T03:26:14.483Z,89.58
2022-12-19T03:27:14.534Z,89.67
2022-12-19T03:28:14.483Z,90.15
2022-12-19T03:29:14.241Z,90.34
2022-12-19T03:30:14.304Z,90.53
2022-12-19T03:31:14.173Z,90.53
2022-12-19T03:32:14.314Z,91.09
2022-12-19T03:33:14.021Z,91.19
2022-12-19T03:34:13.954Z,91.47
2022-12-19T03:35:13.912Z,91.66
2022-12-19T03:36:14.165Z,91.85
2022-12-19T03:37:13.797Z,92.14
2022-12-19T03:38:13.954Z,92.52
2022-12-19T03:39:13.803Z,92.42
2022-12-19T03:40:13.662Z,92.42
2022-12-19T03:41:13.604Z,92.14
2022-12-19T03:42:13.772Z,92.90
2022-12-19T03:43:13.506Z,92.52
2022-12-19T03:44:13.588Z,92.71
2022-12-19T03:45:13.439Z,92.90
2022-12-19T03:46:13.400Z,92.52
2022-12-19T03:47:13.325Z,92.42
2022-12-19T03:48:14.433Z,92.71
2022-12-19T03:49:13.213Z,92.42
2022-12-19T03:50:13.455Z,92.42
2022-12-19T03:51:13.285Z,92.42
2022-12-19T03:52:13.078Z,92.42
2022-12-19T03:53:13.270Z,92.52
2022-12-19T03:54:12.973Z,92.61
2022-12-19T03:55:13.049Z,92.52
2022-12-19T03:56:12.876Z,92.42
2022-12-19T03:57:13.063Z,92.52
2022-12-19T03:58:13.073Z,92.52
2022-12-19T03:59:12.732Z,92.90
2022-12-19T04:00:12.900Z,92.61
2022-12-19T04:01:12.676Z,92.52
2022-12-19T04:02:12.752Z,92.99
2022-12-19T04:03:12.793Z,92.90
2022-12-19T04:04:12.496Z,93.27
2022-12-19T04:05:12.510Z,93.27
2022-12-19T04:06:12.392Z,93.56
2022-12-19T04:07:12.563Z,93.84
2022-12-19T04:08:12.456Z,93.84
2022-12-19T04:09:12.450Z,93.65
2022-12-19T04:10:12.214Z,93.75
2022-12-19T04:11:12.469Z,93.65
2022-12-19T04:12:13.347Z,94.04
2022-12-19T04:13:20.747Z,93.75
2022-12-19T04:14:12.006Z,93.65
2022-12-19T04:15:11.993Z,93.94
2022-12-19T04:16:11.984Z,93.65
2022-12-19T04:17:11.855Z,93.84
2022-12-19T04:18:11.816Z,93.94
2022-12-19T04:19:11.761Z,93.94
2022-12-19T04:20:11.717Z,93.65
2022-12-19T04:21:11.701Z,93.46
2022-12-19T04:22:11.619Z,93.27
2022-12-19T04:23:11.570Z,93.18
2022-12-19T04:24:11.544Z,93.27
2022-12-19T04:25:11.498Z,93.18
2022-12-19T04:26:20.257Z,93.27
2022-12-19T04:27:18.649Z,93.27
2022-12-19T04:28:11.330Z,93.08
2022-12-19T04:29:19.316Z,92.90
2022-12-19T04:30:21.821Z,93.75
2022-12-19T04:31:11.231Z,93.56
2022-12-19T04:32:11.391Z,93.84
2022-12-19T04:33:11.091Z,93.32
2022-12-19T04:34:11.041Z,93.32
2022-12-19T04:35:11.202Z,93.41
2022-12-19T04:36:10.955Z,93.23
2022-12-19T04:37:11.008Z,93.04
2022-12-19T04:38:11.066Z,93.23
2022-12-19T04:39:10.795Z,92.94
2022-12-19T04:40:11.032Z,92.76
2022-12-19T04:41:10.697Z,92.76
2022-12-19T04:42:10.838Z,92.85
2022-12-19T04:43:10.601Z,92.38
2022-12-19T04:44:10.852Z,92.28
2022-12-19T04:45:10.667Z,92.28
2022-12-19T04:46:10.520Z,92.28
2022-12-19T04:47:10.675Z,92.28
2022-12-19T04:48:10.360Z,92.66
2022-12-19T04:49:10.687Z,92.47
2022-12-19T04:50:10.284Z,93.23
2022-12-19T04:51:10.225Z,92.57
2022-12-19T04:52:12.356Z,92.66
2022-12-19T04:53:10.150Z,92.57
2022-12-19T04:54:10.531Z,92.94
2022-12-19T04:55:10.030Z,92.57
2022-12-19T04:56:10.122Z,92.38
2022-12-19T04:57:09.955Z,92.57
2022-12-19T04:58:10.144Z,92.47
2022-12-19T04:59:09.871Z,92.76
2022-12-19T05:00:10.157Z,92.47
2022-12-19T05:01:09.841Z,92.66
2022-12-19T05:02:10.067Z,93.23
2022-12-19T05:03:09.695Z,93.32
2022-12-19T05:04:10.850Z,93.51
2022-12-19T05:05:09.543Z,93.13
2022-12-19T05:06:09.786Z,93.13
2022-12-19T05:07:09.534Z,93.32
2022-12-19T05:08:09.600Z,93.32
2022-12-19T05:09:09.350Z,92.94
2022-12-19T05:10:09.632Z,92.94
2022-12-19T05:11:10.622Z,92.66
2022-12-19T05:12:09.425Z,93.61
2022-12-19T05:13:09.177Z,93.13
2022-12-19T05:14:09.114Z,93.32
2022-12-19T05:15:09.056Z,93.51
2022-12-19T05:16:09.472Z,93.61
2022-12-19T05:17:09.051Z,92.66
2022-12-19T05:18:09.053Z,92.94
2022-12-19T05:19:08.871Z,92.76
2022-12-19T05:20:08.817Z,93.13
2022-12-19T05:21:09.080Z,92.94
2022-12-19T05:22:08.902Z,92.66
2022-12-19T05:23:16.211Z,92.85
2022-12-19T05:24:08.627Z,92.57
2022-12-19T05:25:08.694Z,92.94
2022-12-19T05:26:08.534Z,92.76
2022-12-19T05:27:08.716Z,92.76
2022-12-19T05:28:08.572Z,93.04
2022-12-19T05:29:08.532Z,93.23
2022-12-19T05:30:08.398Z,92.85
2022-12-19T05:31:08.613Z,92.94
2022-12-19T05:32:08.251Z,92.94
2022-12-19T05:33:08.366Z,93.04
2022-12-19T05:34:08.163Z,92.76
2022-12-19T05:35:08.419Z,91.99
2022-12-19T05:36:08.220Z,92.28
2022-12-19T05:37:08.006Z,91.99
2022-12-19T05:38:07.981Z,92.57
2022-12-19T05:39:09.219Z,92.47
2022-12-19T05:40:07.848Z,92.47
2022-12-19T05:41:08.012Z,92.57
2022-12-19T05:42:12.160Z,92.57
2022-12-19T05:43:07.700Z,92.47
2022-12-19T05:44:07.823Z,92.57
2022-12-19T05:45:07.607Z,91.99
2022-12-19T05:46:07.900Z,92.57
2022-12-19T05:47:07.677Z,92.28
2022-12-19T05:48:09.438Z,92.18
2022-12-19T05:49:07.418Z,92.38
2022-12-19T05:50:07.651Z,92.47
2022-12-19T05:51:07.320Z,92.76
2022-12-19T05:52:07.454Z,92.90
2022-12-19T05:53:07.224Z,92.57
2022-12-19T05:54:07.476Z,93.04
2022-12-19T05:55:07.133Z,93.13
2022-12-19T05:56:08.664Z,93.41
2022-12-19T05:57:07.046Z,93.46
2022-12-19T05:58:07.301Z,93.13
2022-12-19T05:59:06.936Z,93.32
2022-12-19T06:03:47.814Z,93.13
2022-12-19T06:04:47.488Z,93.08
2022-12-19T06:05:47.436Z,93.18
2022-12-19T06:06:47.381Z,93.13
2022-12-19T06:07:47.599Z,93.18
2022-12-19T06:08:47.292Z,93.18
2022-12-19T06:09:47.409Z,93.18
2022-12-19T06:10:47.208Z,93.65
2022-12-19T06:11:47.139Z,93.94
2022-12-19T06:12:47.084Z,93.94
2022-12-19T06:13:47.448Z,93.65
2022-12-19T06:14:46.993Z,94.23
2022-12-19T06:15:47.088Z,94.32
2022-12-19T06:16:46.914Z,94.79
2022-12-19T06:17:46.842Z,94.79
2022-12-19T06:18:46.872Z,94.60
2022-12-19T06:19:46.756Z,95.07
2022-12-19T06:20:48.106Z,95.07
2022-12-19T06:21:48.469Z,94.70
2022-12-19T06:22:46.697Z,94.70
2022-12-19T06:23:46.742Z,95.36
2022-12-19T06:24:46.700Z,95.45
2022-12-19T06:25:46.455Z,95.17
2022-12-19T06:26:47.652Z,95.26
2022-12-19T06:27:46.352Z,95.26
2022-12-19T06:28:46.307Z,95.17
2022-12-19T06:29:46.271Z,94.98
2022-12-19T06:30:46.539Z,94.79
2022-12-19T06:31:46.196Z,94.60
2022-12-19T06:32:47.168Z,94.42
2022-12-19T06:33:46.072Z,94.60
2022-12-19T06:35:46.166Z,94.23
2022-12-19T06:36:45.948Z,93.94
2022-12-19T06:37:45.999Z,93.75
2022-12-19T06:38:45.848Z,93.27
2022-12-19T06:39:46.032Z,93.84
2022-12-19T06:40:45.722Z,94.04
2022-12-19T06:41:45.877Z,94.23
2022-12-19T06:42:45.858Z,94.51
2022-12-19T06:43:49.217Z,94.42
2022-12-19T06:44:45.532Z,94.04
2022-12-19T06:45:45.687Z,93.84
2022-12-19T06:46:45.469Z,94.04
2022-12-19T06:47:45.517Z,94.13
2022-12-19T06:48:45.334Z,94.13
2022-12-19T06:49:45.466Z,94.04
2022-12-19T06:50:45.239Z,94.32
2022-12-19T06:51:45.202Z,93.56
2022-12-19T06:52:46.508Z,93.37
2022-12-19T06:53:45.094Z,93.84
2022-12-19T06:54:45.295Z,93.84
2022-12-19T06:55:53.491Z,93.65
2022-12-19T06:56:56.006Z,93.75
2022-12-19T06:57:52.558Z,93.75
2022-12-19T06:58:56.092Z,93.84
2022-12-19T06:59:52.642Z,93.84
2022-12-19T07:00:47.041Z,93.75
2022-12-19T07:01:52.785Z,93.65
2022-12-19T07:02:52.852Z,93.56
2022-12-19T07:03:52.741Z,93.08
2022-12-19T07:04:44.738Z,93.18
2022-12-19T07:05:44.505Z,93.75
2022-12-19T07:06:48.830Z,93.56
2022-12-19T07:07:44.408Z,94.04
2022-12-19T07:08:44.363Z,93.56
2022-12-19T07:09:44.310Z,93.46
2022-12-19T07:10:44.338Z,93.56
2022-12-19T07:11:44.230Z,93.65
2022-12-19T07:12:44.170Z,93.65
2022-12-19T07:13:44.139Z,94.18
2022-12-19T07:14:45.863Z,94.37
2022-12-19T07:15:44.015Z,94.65
2022-12-19T07:16:44.038Z,94.84
2022-12-19T07:19:24.374Z,95.79
2022-12-19T07:20:23.340Z,95.60
2022-12-19T07:21:23.000Z,95.98
2022-12-19T07:22:23.175Z,95.98
2022-12-19T07:23:22.906Z,96.64
2022-12-19T07:24:23.050Z,96.64
2022-12-19T07:25:22.816Z,96.92
2022-12-19T07:26:22.752Z,97.40
2022-12-19T07:27:22.711Z,97.02
2022-12-19T07:28:22.996Z,97.30
2022-12-19T07:29:22.608Z,97.49
2022-12-19T07:30:23.624Z,97.02
2022-12-19T07:31:22.531Z,97.68
2022-12-19T07:32:22.455Z,97.40
2022-12-19T07:33:22.633Z,97.21
2022-12-19T07:34:22.381Z,97.21
2022-12-19T07:35:22.637Z,97.78
2022-12-19T07:36:22.276Z,97.59
2022-12-19T07:37:22.448Z,97.87
2022-12-19T07:38:22.168Z,97.87
2022-12-19T07:39:22.462Z,97.21
2022-12-19T07:40:22.063Z,97.21
2022-12-19T07:41:22.074Z,97.59
2022-12-19T07:42:21.971Z,97.59
2022-12-19T07:43:21.923Z,97.40
2022-12-19T07:44:21.872Z,97.40
2022-12-19T07:45:21.896Z,97.11
2022-12-19T07:46:21.995Z,97.21
2022-12-19T07:47:21.920Z,96.73
2022-12-19T07:48:21.690Z,96.45
2022-12-19T07:49:22.966Z,96.64
2022-12-19T07:50:21.929Z,96.59
2022-12-19T07:51:21.534Z,96.88
2022-12-19T07:52:21.537Z,96.12
2022-12-19T07:53:21.500Z,96.22
2022-12-19T07:54:21.553Z,95.84
2022-12-19T07:55:21.340Z,95.65
2022-12-19T07:56:22.386Z,95.84
2022-12-19T07:57:21.249Z,95.17
2022-12-19T07:58:21.376Z,94.70
2022-12-19T07:59:25.721Z,94.70
2022-12-19T08:00:21.137Z,94.70
2022-12-19T08:01:21.242Z,94.51
2022-12-19T08:02:21.089Z,94.13
2022-12-19T08:03:21.100Z,94.51
2022-12-19T08:04:20.901Z,93.46
2022-12-19T08:05:21.017Z,93.84
2022-12-19T08:06:21.024Z,93.94
2022-12-19T08:07:20.755Z,93.65
2022-12-19T08:08:20.849Z,93.94
2022-12-19T08:09:20.659Z,94.13
2022-12-19T08:10:20.852Z,93.84
2022-12-19T08:11:20.563Z,93.46
2022-12-19T08:12:20.515Z,92.90
2022-12-19T08:13:20.679Z,92.99
2022-12-19T08:14:20.425Z,93.18
2022-12-19T08:15:21.526Z,92.61
2022-12-19T08:16:20.406Z,92.80
2022-12-19T08:17:21.378Z,92.71
2022-12-19T08:18:20.223Z,92.38
2022-12-19T08:19:23.510Z,91.99
2022-12-19T08:20:20.125Z,92.28
2022-12-19T08:21:20.322Z,92.47
2022-12-19T08:22:20.190Z,91.90
2022-12-19T08:23:20.129Z,91.71
2022-12-19T08:24:19.934Z,92.09
2022-12-19T08:25:19.945Z,91.61
2022-12-19T08:26:19.843Z,91.90
2022-12-19T08:27:19.956Z,91.90
2022-12-19T08:28:19.778Z,91.71
2022-12-19T08:29:19.705Z,91.42
2022-12-19T08:30:19.972Z,91.24
2022-12-19T08:31:19.639Z,90.86
2022-12-19T08:32:21.538Z,90.48
2022-12-19T08:33:19.508Z,90.57
2022-12-19T08:34:19.614Z,90.48
2022-12-19T08:35:19.409Z,90.48
2022-12-19T08:36:19.609Z,90.86
2022-12-19T08:37:19.310Z,89.72
2022-12-19T08:38:19.431Z,88.96
2022-12-19T08:39:19.525Z,88.48
2022-12-19T08:40:19.229Z,88.29
2022-12-19T08:41:19.124Z,88.10
2022-12-19T08:42:19.076Z,88.01
2022-12-19T08:43:19.376Z,87.45
2022-12-19T08:44:18.978Z,87.35
2022-12-19T08:45:19.070Z,87.16
2022-12-19T08:46:19.019Z,87.35
2022-12-19T08:47:19.070Z,87.16
2022-12-19T08:48:18.783Z,87.63
2022-12-19T08:49:19.080Z,87.45
2022-12-19T08:50:18.704Z,87.45
2022-12-19T08:51:18.935Z,87.92
2022-12-19T08:52:18.725Z,87.92
2022-12-19T08:53:24.310Z,87.82
2022-12-19T08:54:18.502Z,87.73
2022-12-19T08:55:18.719Z,88.01
2022-12-19T08:56:18.468Z,88.10
2022-12-19T08:57:18.489Z,88.20
2022-12-19T08:58:19.356Z,87.92
2022-12-19T08:59:26.003Z,87.82
2022-12-19T09:00:18.210Z,87.82
2022-12-19T09:01:18.435Z,88.01
2022-12-19T09:02:18.339Z,87.92
2022-12-19T09:03:18.701Z,87.96
2022-12-19T09:05:35.804Z,87.96
2022-12-19T09:06:01.002Z,87.96
2022-12-19T09:06:19.295Z,87.68
2022-12-19T09:07:17.893Z,87.30
2022-12-19T09:08:19.024Z,87.20
2022-12-19T09:09:17.791Z,86.72
2022-12-19T09:10:18.033Z,86.91
2022-12-19T09:11:17.686Z,86.72
2022-12-19T09:12:17.851Z,86.25
2022-12-19T09:13:17.623Z,85.78
2022-12-19T09:14:20.995Z,85.59
2022-12-19T09:15:17.523Z,85.25
2022-12-19T09:16:17.677Z,84.92
2022-12-19T09:17:17.443Z,84.45
2022-12-19T09:18:17.661Z,84.21
2022-12-19T09:19:17.323Z,83.92
2022-12-19T09:20:23.041Z,83.54
2022-12-19T09:21:17.281Z,83.73
2022-12-19T09:22:17.175Z,83.92
2022-12-19T09:23:17.283Z,84.49
2022-12-19T09:24:17.094Z,83.92
2022-12-19T09:25:17.102Z,83.45
2022-12-19T09:26:16.981Z,83.83
2022-12-19T09:27:16.929Z,83.26
2022-12-19T09:28:32.039Z,83.20
2022-12-19T09:29:20.633Z,82.69
2022-12-19T09:30:17.141Z,82.64
2022-12-19T09:31:16.784Z,82.07
2022-12-19T09:32:17.782Z,81.87
2022-12-19T09:33:16.660Z,82.07
2022-12-19T09:34:17.801Z,81.68
2022-12-19T09:35:30.097Z,81.78
2022-12-19T09:36:16.507Z,80.93
2022-12-19T09:37:17.675Z,80.64
2022-12-19T09:38:16.411Z,80.16
2022-12-19T09:39:16.368Z,80.35
2022-12-19T09:40:16.353Z,80.07
2022-12-19T09:41:16.281Z,79.83
2022-12-19T09:42:16.247Z,78.88
2022-12-19T09:43:16.183Z,78.97
2022-12-19T09:44:16.138Z,78.69
2022-12-19T09:45:19.048Z,78.97
2022-12-19T09:46:16.131Z,78.59
2022-12-19T09:47:15.991Z,77.26
2022-12-19T09:48:23.531Z,77.36
2022-12-19T09:49:15.900Z,77.45
2022-12-19T09:50:15.854Z,77.26
2022-12-19T09:51:15.809Z,77.17
2022-12-19T09:52:15.793Z,76.69
2022-12-19T09:53:15.731Z,77.01
2022-12-19T09:54:15.678Z,76.25
2022-12-19T09:55:16.784Z,75.59
2022-12-19T09:56:15.577Z,74.92
2022-12-19T09:57:15.540Z,73.91
2022-12-19T09:58:15.510Z,73.15
2022-12-19T09:59:15.449Z,72.39
2022-12-19T10:00:15.395Z,71.72
2022-12-19T10:01:15.424Z,71.82
2022-12-19T10:02:15.543Z,71.82
2022-12-19T10:03:15.409Z,71.53
2022-12-19T10:04:15.292Z,71.53
2022-12-19T10:05:32.316Z,71.44
2022-12-19T10:07:22.226Z,71.34
2022-12-19T10:07:34.309Z,71.44
2022-12-19T10:08:15.087Z,70.90
2022-12-19T10:11:54.830Z,70.24
2022-12-19T10:12:35.711Z,69.38
2022-12-19T10:12:38.035Z,69.38
2022-12-19T10:12:43.864Z,68.90
2022-12-19T10:13:14.800Z,68.15
2022-12-19T10:14:14.780Z,68.05
2022-12-19T10:15:14.744Z,67.86
2022-12-19T10:16:14.739Z,67.95
2022-12-19T10:17:29.664Z,67.86
2022-12-19T10:18:14.577Z,67.67
2022-12-19T10:19:14.531Z,67.47
2022-12-19T10:20:14.532Z,67.86
2022-12-19T10:21:14.441Z,68.71
2022-12-19T10:22:18.914Z,68.33
2022-12-19T10:23:14.382Z,68.33
2022-12-19T10:24:14.305Z,68.81
2022-12-19T10:25:14.266Z,68.81
2022-12-19T10:26:14.227Z,68.71
2022-12-19T10:27:14.190Z,68.62
2022-12-19T10:28:14.125Z,68.52
2022-12-19T10:29:14.076Z,68.90
2022-12-19T10:30:14.078Z,68.68
2022-12-19T10:31:21.057Z,68.87
2022-12-19T10:32:13.982Z,69.15
2022-12-19T10:33:20.361Z,69.29
2022-12-19T10:34:13.851Z,69.29
2022-12-19T10:35:13.809Z,68.71
2022-12-19T10:36:13.795Z,69.00
2022-12-19T10:37:26.503Z,68.15
2022-12-19T10:38:13.698Z,68.05
2022-12-19T10:39:13.665Z,67.95
2022-12-19T10:40:21.723Z,67.67
2022-12-19T10:41:13.549Z,67.95
2022-12-19T10:42:13.524Z,67.76
2022-12-19T10:43:19.072Z,68.24
2022-12-19T10:44:13.424Z,68.71
2022-12-19T10:45:13.365Z,68.15
2022-12-19T10:46:13.397Z,67.95
2022-12-19T10:47:13.289Z,68.05
2022-12-19T10:48:13.343Z,68.15
2022-12-19T10:49:13.174Z,68.62
2022-12-19T10:50:13.134Z,69.19
2022-12-19T10:51:13.131Z,69.29
2022-12-19T10:52:13.050Z,69.38
2022-12-19T10:53:13.032Z,68.90
2022-12-19T10:54:12.966Z,68.62
2022-12-19T10:55:12.935Z,68.62
2022-12-19T10:56:12.860Z,68.71
2022-12-19T10:57:12.804Z,68.90
2022-12-19T10:58:12.765Z,68.90
2022-12-19T10:59:12.910Z,69.38
2022-12-19T11:00:12.675Z,69.04
2022-12-19T11:01:12.687Z,68.94
2022-12-19T11:02:12.702Z,68.75
2022-12-19T11:03:12.673Z,67.80
2022-12-19T11:04:12.513Z,67.74
2022-12-19T11:05:12.484Z,67.35
2022-12-19T11:06:12.435Z,67.07
2022-12-19T11:07:12.363Z,66.31
2022-12-19T11:08:12.361Z,65.45
2022-12-19T11:09:12.271Z,65.64
2022-12-19T11:12:08.315Z,64.78
2022-12-19T11:13:11.882Z,64.97
2022-12-19T11:15:27.083Z,64.69
2022-12-19T11:17:31.275Z,65.16
2022-12-19T11:18:30.319Z,65.45
2022-12-19T11:19:54.238Z,65.26
2022-12-19T11:22:09.590Z,65.16
2022-12-19T11:25:24.786Z,65.23
2022-12-19T11:28:37.771Z,65.07
2022-12-19T11:29:15.462Z,65.16
2022-12-19T11:29:19.861Z,65.26
2022-12-19T11:29:31.605Z,65.26
2022-12-19T11:29:37.681Z,65.16
2022-12-19T11:29:44.965Z,64.97
2022-12-19T11:30:37.136Z,65.80
2022-12-19T11:30:37.766Z,64.94
2022-12-19T11:30:45.509Z,65.70
2022-12-19T11:30:45.891Z,65.70
2022-12-19T11:30:47.822Z,65.03
2022-12-19T11:30:59.413Z,64.94
2022-12-19T11:32:41.413Z,66.37
2022-12-19T11:33:11.293Z,66.27
2022-12-19T11:34:11.174Z,66.85
2022-12-19T11:35:11.107Z,66.50
2022-12-19T11:36:11.067Z,65.92
2022-12-19T11:37:11.017Z,65.58
2022-12-19T11:38:10.981Z,64.24
2022-12-19T11:39:10.964Z,63.99
2022-12-19T11:40:10.886Z,63.35
2022-12-19T11:41:10.842Z,61.83
2022-12-19T11:42:10.823Z,60.49
2022-12-19T11:43:43.145Z,59.09
2022-12-19T11:44:10.714Z,58.70
2022-12-19T11:45:10.706Z,58.80
2022-12-19T11:46:12.039Z,58.26
2022-12-19T11:47:10.598Z,57.87
2022-12-19T11:48:10.543Z,57.50
2022-12-19T11:49:10.508Z,56.76
2022-12-19T11:50:10.498Z,56.21
2022-12-19T11:51:10.426Z,56.21
2022-12-19T11:52:23.704Z,55.16
2022-12-19T11:53:16.826Z,54.59
2022-12-19T11:54:10.297Z,54.97
2022-12-19T11:55:10.266Z,54.78
2022-12-19T11:56:16.221Z,53.73
2022-12-19T11:57:10.166Z,54.39
2022-12-19T11:58:10.150Z,54.39
2022-12-19T11:59:10.090Z,54.21
2022-12-19T12:00:10.049Z,53.63
2022-12-19T12:01:10.008Z,53.94
2022-12-19T12:02:10.055Z,54.04
2022-12-19T12:03:09.951Z,53.08
2022-12-19T12:04:10.041Z,53.28
2022-12-19T12:05:09.948Z,52.51
2022-12-19T12:06:09.804Z,52.39
2022-12-19T12:07:28.388Z,53.25
2022-12-19T12:09:43.603Z,53.34
2022-12-19T12:15:17.164Z,53.06
2022-12-19T12:16:46.630Z,53.06
2022-12-19T12:16:51.781Z,53.44
2022-12-19T12:19:26.928Z,53.99
2022-12-19T12:21:42.975Z,54.18
2022-12-19T12:25:32.950Z,54.27
2022-12-19T12:25:40.233Z,55.04
2022-12-19T12:29:16.576Z,54.47
2022-12-19T12:30:33.526Z,55.61
2022-12-19T12:31:04.007Z,55.90
2022-12-19T12:31:05.201Z,55.42
2022-12-19T12:31:06.436Z,54.94
2022-12-19T12:31:17.475Z,55.52
2022-12-19T12:31:21.385Z,54.37
2022-12-19T12:31:43.542Z,57.56
2022-12-19T12:31:45.830Z,56.89
2022-12-19T12:31:46.194Z,56.60
2022-12-19T12:31:50.789Z,55.49
2022-12-19T12:31:51.876Z,55.30
2022-12-19T12:31:55.172Z,54.91
2022-12-19T12:32:05.787Z,55.75
2022-12-19T12:35:15.183Z,57.75
2022-12-19T12:35:31.528Z,57.53
2022-12-19T12:35:33.433Z,57.75
2022-12-19T12:35:56.816Z,57.85
2022-12-19T12:36:53.127Z,57.92
2022-12-19T12:38:26.568Z,58.29
2022-12-19T12:39:08.431Z,58.39
2022-12-19T12:40:08.409Z,58.58
2022-12-19T12:41:08.331Z,58.77
2022-12-19T12:42:08.300Z,59.16
2022-12-19T12:43:08.250Z,58.77
2022-12-19T12:44:08.211Z,58.77
2022-12-19T12:45:08.160Z,58.87
2022-12-19T12:46:08.181Z,59.06
2022-12-19T12:47:08.076Z,59.34
2022-12-19T12:48:08.040Z,59.34
2022-12-19T12:49:07.991Z,59.92
2022-12-19T12:50:07.982Z,60.02
2022-12-19T12:51:07.904Z,59.60
2022-12-19T12:52:07.861Z,60.55
2022-12-19T12:53:07.818Z,60.84
2022-12-19T12:54:07.984Z,61.22
2022-12-19T12:55:07.758Z,61.89
2022-12-19T12:56:07.727Z,62.18
2022-12-19T12:57:07.644Z,62.18
2022-12-19T12:58:13.545Z,62.08
2022-12-19T12:59:07.554Z,62.75
2022-12-19T13:00:07.520Z,62.84
2022-12-19T13:01:07.511Z,62.37
2022-12-19T13:02:07.595Z,62.46
2022-12-19T13:03:07.706Z,62.75